ENGLEBRIGHT (USACE) (ENG)

Elevation: 551' · YUBA R basin · Operator: US Army Corps of Engineers

Provisional data, subject to change.
Query executed Thursday at 23:43:16   clock

Select a sensor type for a plot of data.
Note: Reservoir Flows are daily averages.

Earlier

Date RES ELE    STORAGE    RES CHG    OUTFLOW    INFLOW    PPT INC   
 FEET   AF   AF   CFS   CFS   INCHES  
01/12/2016 520.23 64609 -384 -- 379 0.00
01/13/2016 520.15 64547 -62 -- 540 0.61
01/14/2016 520.63 64916 369 -- 760 0.28
01/15/2016 521.83 65844 928 -- 1044 0.12
01/16/2016 522.58 66430 586 -- 871 0.31
01/17/2016 525.71 68917 2487 -- 1858 0.34
01/18/2016 528.73 71384 2467 -- 7008 1.02
01/19/2016 528.72 71376 -8 -- 3628 0.97
01/20/2016 528.11 70872 -504 -- 3155 0.36
01/21/2016 527.80 70617 -255 -- 1888 0.00
01/22/2016 527.93 70724 107 -- 1912 0.17
01/23/2016 528.41 71119 395 -- 3086 0.27
01/24/2016 528.06 70831 -288 -- 2605 0.16
01/25/2016 527.83 70642 -189 -- 1915 0.01
01/26/2016 527.65 70494 -148 -- 1642 0.07
01/27/2016 527.48 70354 -140 -- 1412 0.04
01/28/2016 527.22 70142 -212 -- 1083 0.08
01/29/2016 531.09 73360 3218 -- 3714 0.61
01/30/2016 529.69 72183 -1177 -- 12808 0.12
01/31/2016 528.74 71392 -791 -- 5059 0.16
02/01/2016 528.23 70971 -421 -- 654796 0.00
02/02/2016 528.00 70781 -190 -- 2107 0.12
02/03/2016 527.86 70666 -115 -- 1768 0.01
02/04/2016 527.65 70494 -172 -- 1546 0.00
02/05/2016 527.44 70322 -172 -- 1430 0.00
02/06/2016 527.11 70052 -270 -- 1012 0.00
02/07/2016 526.68 69702 -350 -- 1598 0.00
02/08/2016 526.17 69288 -414 -- 890 0.00
02/09/2016 525.67 68884 -404 -- 525 0.00
02/10/2016 524.97 68322 -562 -- 514 0.00
02/11/2016 -- -- -- -- -- --

Later | Latest

Warning! This data is preliminary and subject to revision.

Show ENG Map | Plot ENG Data | 1 Month ENG Data | Real-Time ENG Data | ENG Info